createdAt,value
2023-01-10T00:00:14.692Z,4.07
2023-01-10T00:02:44.419Z,3.93
2023-01-10T00:05:11.820Z,3.57
2023-01-10T00:07:39.176Z,4.07
2023-01-10T00:10:06.681Z,4.60
2023-01-10T00:12:51.599Z,3.80
2023-01-10T00:15:18.971Z,3.93
2023-01-10T00:17:47.658Z,3.93
2023-01-10T00:20:15.072Z,4.30
2023-01-10T00:22:42.409Z,4.53
2023-01-10T00:25:09.927Z,4.33
2023-01-10T00:27:37.316Z,4.00
2023-01-10T00:30:13.738Z,4.17
2023-01-10T00:32:41.716Z,4.53
2023-01-10T00:35:11.039Z,4.60
2023-01-10T00:37:38.472Z,4.00
2023-01-10T00:40:08.728Z,3.80
2023-01-10T00:42:53.782Z,3.90
2023-01-10T00:45:22.568Z,4.17
2023-01-10T00:47:49.895Z,4.50
2023-01-10T00:50:19.325Z,4.63
2023-01-10T00:52:46.704Z,4.97
2023-01-10T00:55:14.073Z,4.87
2023-01-10T00:57:41.443Z,4.70
2023-01-10T01:00:10.084Z,4.30
2023-01-10T01:02:37.446Z,4.40
2023-01-10T01:05:05.652Z,4.20
2023-01-10T01:07:34.305Z,3.77
2023-01-10T01:10:19.376Z,3.50
2023-01-10T01:12:46.704Z,3.80
2023-01-10T01:15:14.009Z,3.00
2023-01-10T01:17:41.343Z,3.60
2023-01-10T01:20:09.929Z,3.43
2023-01-10T01:22:38.657Z,3.70
2023-01-10T01:25:06.412Z,3.47
2023-01-10T01:27:34.872Z,3.23
2023-01-10T01:30:02.271Z,3.07
2023-01-10T01:32:29.614Z,3.57
2023-01-10T01:34:57.026Z,4.20
2023-01-10T01:37:24.371Z,3.77
2023-01-10T01:39:53.055Z,3.70
2023-01-10T01:42:26.082Z,3.60
2023-01-10T01:45:12.174Z,3.40
2023-01-10T01:47:43.644Z,3.10
2023-01-10T01:50:15.488Z,3.17
2023-01-10T01:52:42.804Z,3.37
2023-01-10T01:55:11.716Z,3.23
2023-01-10T01:57:39.048Z,2.97
2023-01-10T02:00:07.003Z,2.70
2023-01-10T02:02:36.653Z,2.47
2023-01-10T02:05:05.439Z,2.70
2023-01-10T02:07:37.331Z,2.87
2023-01-10T02:10:07.698Z,2.50
2023-01-10T02:12:37.109Z,2.47
2023-01-10T02:15:04.766Z,2.60
2023-01-10T02:17:32.127Z,2.53
2023-01-10T02:20:01.614Z,2.77
2023-01-10T02:22:42.322Z,2.30
2023-01-10T02:25:27.986Z,2.70
2023-01-10T02:28:07.336Z,2.60
2023-01-10T02:31:03.119Z,2.97
2023-01-10T02:33:33.378Z,2.70
2023-01-10T02:36:09.577Z,2.33
2023-01-10T02:38:42.269Z,2.57
2023-01-10T02:41:15.468Z,2.90
2023-01-10T02:43:46.989Z,2.93
2023-01-10T02:46:16.944Z,3.10
2023-01-10T02:48:45.740Z,3.00
2023-01-10T02:51:18.148Z,2.83
2023-01-10T02:53:46.907Z,3.67
2023-01-10T02:56:21.579Z,3.30
2023-01-10T02:59:00.681Z,3.00
2023-01-10T03:01:35.173Z,3.30
2023-01-10T03:04:10.002Z,3.60
2023-01-10T03:06:43.008Z,3.53
2023-01-10T03:09:15.352Z,2.47
2023-01-10T03:11:44.522Z,2.80
2023-01-10T03:14:15.216Z,2.40
2023-01-10T03:16:45.191Z,2.40
2023-01-10T03:19:15.475Z,2.80
2023-01-10T03:21:44.317Z,2.57
2023-01-10T03:24:14.677Z,2.27
2023-01-10T03:26:45.950Z,2.97
2023-01-10T03:29:15.212Z,2.53
2023-01-10T03:31:46.298Z,2.90
2023-01-10T03:34:15.358Z,3.10
2023-01-10T03:36:48.435Z,3.00
2023-01-10T03:39:19.511Z,2.50
2023-01-10T03:41:49.847Z,2.90
2023-01-10T03:44:36.338Z,2.33
2023-01-10T03:47:06.496Z,2.80
2023-01-10T03:49:36.080Z,2.30
2023-01-10T03:52:04.211Z,2.50
2023-01-10T03:54:31.577Z,2.63
2023-01-10T03:56:58.897Z,3.03
2023-01-10T03:59:26.907Z,3.00
2023-01-10T04:01:54.942Z,3.00
2023-01-10T04:04:22.829Z,2.97
2023-01-10T04:06:51.593Z,3.43
2023-01-10T04:09:18.937Z,4.07
2023-01-10T04:11:46.285Z,5.20
2023-01-10T04:14:13.624Z,4.87
2023-01-10T04:16:40.942Z,5.40
2023-01-10T04:19:08.403Z,5.60
2023-01-10T04:21:35.724Z,5.70
2023-01-10T04:24:04.559Z,5.63
2023-01-10T04:26:31.915Z,6.43
2023-01-10T04:28:59.249Z,6.30
2023-01-10T04:31:27.056Z,6.90
2023-01-10T04:33:54.444Z,5.93
2023-01-10T04:36:21.762Z,5.50
2023-01-10T04:38:49.086Z,6.90
2023-01-10T04:41:17.737Z,6.23
2023-01-10T04:43:45.048Z,6.17
2023-01-10T04:46:12.401Z,6.20
2023-01-10T04:48:39.722Z,5.90
2023-01-10T04:51:07.176Z,5.90
2023-01-10T04:53:34.534Z,7.10
2023-01-10T04:56:05.324Z,5.97
2023-01-10T04:58:34.946Z,6.20
2023-01-10T05:01:07.942Z,6.73
2023-01-10T05:03:35.362Z,5.90
2023-01-10T05:06:02.722Z,6.17
2023-01-10T05:08:30.056Z,5.10
2023-01-10T05:10:57.457Z,5.73
2023-01-10T05:13:25.055Z,5.40
2023-01-10T05:15:56.004Z,5.40
2023-01-10T05:18:23.537Z,5.50
2023-01-10T05:20:50.898Z,5.33
2023-01-10T05:23:18.259Z,6.13
2023-01-10T05:25:45.951Z,6.77
2023-01-10T05:28:13.279Z,6.27
2023-01-10T05:30:40.638Z,5.47
2023-01-10T05:33:09.694Z,5.30
2023-01-10T05:35:37.060Z,5.23
2023-01-10T05:38:04.424Z,5.30
2023-01-10T05:40:31.835Z,4.67
2023-01-10T05:42:59.173Z,5.80
2023-01-10T05:45:26.532Z,5.17
2023-01-10T05:47:53.820Z,5.97
2023-01-10T05:50:22.488Z,5.40
2023-01-10T05:52:49.840Z,4.90
2023-01-10T05:55:17.241Z,5.23
2023-01-10T05:57:44.725Z,5.40
2023-01-10T06:00:12.616Z,5.63
2023-01-10T06:02:40.223Z,5.03
2023-01-10T06:05:08.069Z,4.20
2023-01-10T06:07:36.738Z,4.97
2023-01-10T06:10:04.581Z,4.40
2023-01-10T06:12:31.930Z,5.10
2023-01-10T06:14:59.253Z,5.27
2023-01-10T06:17:26.606Z,4.50
2023-01-10T06:19:53.936Z,5.03
2023-01-10T06:22:21.311Z,4.30
2023-01-10T06:24:49.980Z,4.43
2023-01-10T06:27:17.452Z,4.23
2023-01-10T06:29:45.027Z,3.97
2023-01-10T06:32:12.413Z,4.60
2023-01-10T06:34:39.795Z,4.00
2023-01-10T06:37:08.541Z,3.87
2023-01-10T06:39:35.903Z,3.53
2023-01-10T06:42:04.575Z,3.80
2023-01-10T06:44:31.951Z,3.17
2023-01-10T06:46:59.437Z,2.90
2023-01-10T06:49:26.749Z,3.10
2023-01-10T06:51:54.094Z,3.40
2023-01-10T06:54:21.448Z,3.47
2023-01-10T06:56:49.318Z,2.80
2023-01-10T06:59:18.156Z,2.80
2023-01-10T07:01:45.849Z,3.23
2023-01-10T07:04:13.334Z,3.10
2023-01-10T07:06:41.509Z,3.50
2023-01-10T07:09:09.327Z,3.40
2023-01-10T07:11:37.127Z,3.17
2023-01-10T07:14:04.507Z,2.97
2023-01-10T07:16:33.191Z,4.10
2023-01-10T07:19:00.935Z,3.50
2023-01-10T07:21:28.306Z,3.53
2023-01-10T07:23:55.661Z,3.67
2023-01-10T07:26:24.266Z,2.90
2023-01-10T07:28:52.004Z,3.70
2023-01-10T07:31:19.814Z,3.10
2023-01-10T07:33:48.584Z,3.33
2023-01-10T07:36:15.918Z,3.47
2023-01-10T07:38:43.315Z,3.10
2023-01-10T07:41:10.831Z,2.83
2023-01-10T07:43:38.213Z,3.10
2023-01-10T07:46:08.189Z,3.00
2023-01-10T07:48:35.976Z,2.47
2023-01-10T07:51:05.772Z,2.60
2023-01-10T07:53:33.205Z,2.97
2023-01-10T07:56:01.173Z,2.60
2023-01-10T07:58:28.539Z,2.20
2023-01-10T08:00:58.099Z,2.50
2023-01-10T08:03:25.720Z,2.40
2023-01-10T08:05:58.967Z,2.57
2023-01-10T08:08:27.868Z,2.80
2023-01-10T08:10:55.464Z,2.73
2023-01-10T08:13:22.804Z,2.83
2023-01-10T08:15:52.354Z,2.40
2023-01-10T08:18:20.341Z,2.33
2023-01-10T08:20:49.340Z,2.60
2023-01-10T08:23:16.704Z,2.80
2023-01-10T08:25:45.538Z,2.60
2023-01-10T08:28:13.381Z,3.97
2023-01-10T08:30:41.031Z,3.87
2023-01-10T08:33:09.169Z,2.73
2023-01-10T08:35:39.414Z,2.90
2023-01-10T08:38:06.860Z,3.03
2023-01-10T08:40:34.331Z,2.63
2023-01-10T08:43:03.995Z,2.27
2023-01-10T08:45:31.371Z,2.50
2023-01-10T08:47:58.711Z,2.00
2023-01-10T08:50:26.197Z,2.40
2023-01-10T08:52:53.615Z,2.60
2023-01-10T08:55:21.366Z,2.47
2023-01-10T08:57:48.786Z,2.70
2023-01-10T09:00:17.922Z,2.50
2023-01-10T09:02:45.439Z,2.70
2023-01-10T09:05:26.385Z,2.87
2023-01-10T09:07:55.031Z,2.70
2023-01-10T09:10:22.463Z,2.80
2023-01-10T09:12:55.566Z,5.70
2023-01-10T09:15:25.430Z,5.23
2023-01-10T09:17:53.954Z,3.97
2023-01-10T09:20:21.480Z,3.73
2023-01-10T09:22:48.928Z,3.93
2023-01-10T09:25:16.273Z,4.40
2023-01-10T09:27:43.624Z,4.30
2023-01-10T09:30:11.540Z,3.83
2023-01-10T09:32:40.337Z,3.67
2023-01-10T09:35:07.945Z,3.97
2023-01-10T09:37:35.341Z,3.63
2023-01-10T09:40:02.726Z,4.07
2023-01-10T09:42:36.225Z,3.40
2023-01-10T09:45:07.887Z,4.60
2023-01-10T09:47:40.286Z,4.13
2023-01-10T09:50:15.338Z,4.23
2023-01-10T09:52:44.310Z,4.20
2023-01-10T09:55:18.416Z,4.30
2023-01-10T09:57:46.143Z,4.27
2023-01-10T10:00:17.268Z,4.20
2023-01-10T10:02:46.594Z,4.77
2023-01-10T10:05:20.396Z,4.47
2023-01-10T10:07:48.995Z,4.60
2023-01-10T10:10:18.141Z,4.33
2023-01-10T10:12:50.395Z,4.93
2023-01-10T10:15:21.197Z,5.47
2023-01-10T10:17:52.984Z,5.60
2023-01-10T10:20:39.755Z,5.07
2023-01-10T10:23:21.811Z,5.37
2023-01-10T10:25:55.407Z,5.20
2023-01-10T10:28:39.204Z,5.77
2023-01-10T10:31:16.904Z,5.23
2023-01-10T10:33:51.268Z,6.17
2023-01-10T10:36:23.821Z,5.77
2023-01-10T10:38:52.388Z,5.80
2023-01-10T10:41:32.551Z,5.50
2023-01-10T10:44:04.059Z,5.90
2023-01-10T10:46:32.246Z,7.70
2023-01-10T10:49:01.023Z,5.10
2023-01-10T10:51:31.173Z,5.20
2023-01-10T10:53:58.792Z,5.57
2023-01-10T10:56:27.408Z,5.57
2023-01-10T10:58:56.412Z,5.50
2023-01-10T11:01:26.366Z,5.37
2023-01-10T11:03:55.805Z,5.73
2023-01-10T11:06:24.730Z,5.80
2023-01-10T11:08:54.325Z,5.10
2023-01-10T11:11:22.890Z,4.90
2023-01-10T11:13:54.220Z,4.97
2023-01-10T11:16:27.414Z,4.57
2023-01-10T11:19:11.230Z,4.70
2023-01-10T11:21:39.587Z,5.00
2023-01-10T11:24:20.074Z,4.30
2023-01-10T11:26:47.631Z,4.10
2023-01-10T11:29:16.754Z,4.70
2023-01-10T11:31:44.730Z,4.20
2023-01-10T11:34:20.285Z,4.87
2023-01-10T11:36:54.379Z,4.20
2023-01-10T11:39:23.221Z,4.03
2023-01-10T11:41:53.077Z,4.30
2023-01-10T11:44:23.994Z,4.00
2023-01-10T11:46:53.286Z,3.60
2023-01-10T11:49:24.248Z,3.60
2023-01-10T11:51:53.339Z,3.50
2023-01-10T11:54:22.175Z,2.90
2023-01-10T11:56:56.274Z,3.43
2023-01-10T11:59:24.306Z,2.90
2023-01-10T12:01:56.096Z,3.10
2023-01-10T12:04:24.048Z,3.00
2023-01-10T12:06:53.414Z,3.33
2023-01-10T12:09:33.449Z,3.10
2023-01-10T12:12:04.163Z,2.57
2023-01-10T12:14:31.650Z,2.60
2023-01-10T12:17:03.284Z,2.70
2023-01-10T12:19:30.739Z,2.70
2023-01-10T12:21:59.976Z,2.50
2023-01-10T12:24:29.340Z,2.20
2023-01-10T12:26:57.996Z,2.10
2023-01-10T12:29:28.974Z,2.30
2023-01-10T12:31:57.911Z,2.63
2023-01-10T12:34:27.764Z,2.57
2023-01-10T12:36:59.229Z,3.40
2023-01-10T12:39:30.280Z,2.83
2023-01-10T12:42:21.179Z,1.90
2023-01-10T12:44:52.661Z,2.40
2023-01-10T12:47:29.463Z,3.13
2023-01-10T12:49:58.476Z,3.90
2023-01-10T12:52:29.873Z,2.80
2023-01-10T12:54:57.286Z,3.13
2023-01-10T12:57:26.843Z,2.30
2023-01-10T12:59:56.318Z,2.40
2023-01-10T13:02:25.691Z,2.50
2023-01-10T13:04:56.898Z,2.77
2023-01-10T13:07:25.492Z,2.40
2023-01-10T13:09:53.375Z,2.47
2023-01-10T13:12:23.653Z,2.27
2023-01-10T13:14:55.519Z,2.57
2023-01-10T13:17:34.057Z,2.37
2023-01-10T13:20:16.362Z,2.80
2023-01-10T13:22:44.459Z,2.07
2023-01-10T13:25:20.038Z,2.13
2023-01-10T13:27:47.442Z,2.20
2023-01-10T13:30:25.871Z,2.80
2023-01-10T13:32:58.330Z,2.83
2023-01-10T13:35:28.639Z,2.17
2023-01-10T13:37:57.008Z,2.20
2023-01-10T13:40:27.409Z,2.37
2023-01-10T13:43:18.753Z,2.33
2023-01-10T13:45:46.084Z,2.63
2023-01-10T13:48:28.301Z,2.33
2023-01-10T13:51:06.534Z,1.90
2023-01-10T13:53:52.764Z,2.30
2023-01-10T13:56:29.593Z,2.77
2023-01-10T13:59:14.604Z,2.27
2023-01-10T14:02:00.063Z,2.33
2023-01-10T14:04:30.839Z,2.20
2023-01-10T14:06:59.783Z,1.83
2023-01-10T14:09:32.777Z,2.33
2023-01-10T14:12:00.994Z,2.00
2023-01-10T14:14:29.606Z,1.70
2023-01-10T14:16:58.448Z,1.97
2023-01-10T14:19:28.831Z,1.90
2023-01-10T14:21:59.238Z,2.17
2023-01-10T14:24:28.011Z,2.10
2023-01-10T14:26:57.506Z,2.13
2023-01-10T14:29:28.274Z,2.30
2023-01-10T14:31:56.554Z,1.97
2023-01-10T14:34:24.871Z,2.20
2023-01-10T14:36:56.631Z,2.00
2023-01-10T14:39:25.662Z,2.03
2023-01-10T14:41:54.520Z,2.07
2023-01-10T14:44:23.949Z,2.27
2023-01-10T14:46:52.571Z,2.33
2023-01-10T14:49:21.844Z,2.00
2023-01-10T14:51:50.525Z,2.33
2023-01-10T14:54:19.632Z,1.97
2023-01-10T14:56:49.096Z,1.90
2023-01-10T14:59:23.566Z,1.90
2023-01-10T15:01:51.766Z,2.50
2023-01-10T15:04:20.404Z,2.40
2023-01-10T15:06:55.446Z,2.10
2023-01-10T15:09:23.075Z,1.90
2023-01-10T15:11:52.496Z,2.30
2023-01-10T15:14:23.271Z,1.83
2023-01-10T15:16:51.873Z,2.50
2023-01-10T15:19:20.799Z,2.53
2023-01-10T15:21:48.352Z,2.50
2023-01-10T15:24:23.988Z,2.63
2023-01-10T15:26:53.671Z,2.20
2023-01-10T15:29:23.114Z,2.07
2023-01-10T15:31:50.990Z,2.10
2023-01-10T15:34:19.863Z,2.70
2023-01-10T15:36:49.297Z,2.30
2023-01-10T15:39:21.119Z,2.03
2023-01-10T15:41:48.770Z,2.10
2023-01-10T15:44:24.518Z,1.63
2023-01-10T15:46:55.758Z,2.30
2023-01-10T15:49:24.435Z,2.10
2023-01-10T15:51:52.008Z,2.10
2023-01-10T15:54:34.574Z,2.03
2023-01-10T15:57:06.557Z,1.90
2023-01-10T15:59:37.915Z,1.83
2023-01-10T16:02:16.945Z,1.90
2023-01-10T16:04:46.104Z,2.50
2023-01-10T16:07:16.568Z,2.03
2023-01-10T16:09:48.832Z,2.30
2023-01-10T16:12:42.657Z,2.00
2023-01-10T16:15:17.709Z,2.03
2023-01-10T16:17:45.050Z,2.27
2023-01-10T16:20:13.644Z,1.90
2023-01-10T16:22:41.183Z,2.03
2023-01-10T16:25:14.061Z,1.73
2023-01-10T16:27:41.431Z,1.70
2023-01-10T16:30:21.352Z,2.10
2023-01-10T16:32:49.118Z,2.20
2023-01-10T16:35:18.514Z,2.40
2023-01-10T16:37:46.328Z,2.30
2023-01-10T16:40:17.870Z,2.70
2023-01-10T16:43:02.679Z,2.57
2023-01-10T16:45:31.644Z,2.37
2023-01-10T16:47:59.061Z,2.80
2023-01-10T16:50:26.409Z,2.00
2023-01-10T16:52:53.934Z,2.33
2023-01-10T16:55:22.584Z,2.97
2023-01-10T16:57:51.655Z,2.40
2023-01-10T17:00:19.584Z,2.00
2023-01-10T17:02:48.388Z,1.80
2023-01-10T17:05:16.727Z,1.97
2023-01-10T17:07:44.377Z,2.50
2023-01-10T17:10:12.187Z,2.10
2023-01-10T17:12:40.299Z,2.40
2023-01-10T17:15:08.990Z,2.23
2023-01-10T17:17:36.573Z,2.33
2023-01-10T17:20:06.113Z,1.93
2023-01-10T17:22:33.636Z,2.43
2023-01-10T17:25:00.991Z,2.00
2023-01-10T17:27:28.321Z,2.10
2023-01-10T17:29:55.690Z,1.60
2023-01-10T17:32:23.027Z,1.87
2023-01-10T17:34:50.406Z,1.70
2023-01-10T17:37:19.380Z,1.83
2023-01-10T17:39:48.128Z,2.27
2023-01-10T17:42:17.054Z,2.17
2023-01-10T17:44:46.405Z,1.90
2023-01-10T17:47:13.786Z,1.63
2023-01-10T17:49:42.069Z,2.10
2023-01-10T17:52:10.482Z,2.23
2023-01-10T17:54:39.258Z,2.60
2023-01-10T17:57:06.843Z,2.13
2023-01-10T17:59:34.219Z,2.00
2023-01-10T18:02:01.694Z,2.53
2023-01-10T18:04:29.210Z,2.83
2023-01-10T18:06:56.554Z,2.30
2023-01-10T18:09:23.970Z,2.67
2023-01-10T18:11:52.643Z,2.40
2023-01-10T18:14:38.269Z,2.30
2023-01-10T18:17:06.544Z,2.30
2023-01-10T18:19:34.638Z,2.50
2023-01-10T18:22:02.110Z,2.87
2023-01-10T18:24:29.492Z,2.57
2023-01-10T18:26:58.161Z,3.00
2023-01-10T18:29:25.503Z,3.13
2023-01-10T18:31:52.857Z,3.07
2023-01-10T18:34:20.241Z,2.80
2023-01-10T18:36:47.623Z,3.23
2023-01-10T18:39:14.979Z,3.50
2023-01-10T18:41:42.332Z,3.23
2023-01-10T18:44:11.040Z,3.77
2023-01-10T18:46:38.533Z,2.90
2023-01-10T18:49:05.886Z,3.50
2023-01-10T18:51:33.262Z,2.90
2023-01-10T18:54:01.023Z,2.83
2023-01-10T18:56:28.358Z,2.53
2023-01-10T18:58:58.643Z,2.70
2023-01-10T19:01:29.205Z,2.40
2023-01-10T19:03:56.560Z,2.53
2023-01-10T19:06:23.926Z,2.77
2023-01-10T19:08:52.599Z,2.93
2023-01-10T19:11:20.339Z,3.37
2023-01-10T19:13:48.309Z,3.30
2023-01-10T19:16:17.002Z,2.83
2023-01-10T19:18:48.837Z,2.60
2023-01-10T19:21:16.224Z,2.60
2023-01-10T19:23:44.056Z,2.57
2023-01-10T19:26:11.834Z,2.67
2023-01-10T19:28:39.308Z,2.87
2023-01-10T19:31:06.873Z,2.53
2023-01-10T19:33:35.119Z,2.53
2023-01-10T19:36:06.601Z,2.70
2023-01-10T19:38:34.017Z,2.83
2023-01-10T19:41:01.349Z,3.10
2023-01-10T19:43:29.022Z,2.57
2023-01-10T19:45:56.403Z,2.60
2023-01-10T19:48:24.095Z,2.50
2023-01-10T19:50:51.425Z,2.97
2023-01-10T19:53:23.840Z,3.43
2023-01-10T19:55:59.793Z,3.13
2023-01-10T19:58:27.099Z,3.37
2023-01-10T20:00:54.525Z,2.80
2023-01-10T20:03:21.894Z,2.87
2023-01-10T20:05:49.235Z,2.70
2023-01-10T20:08:17.797Z,2.97
2023-01-10T20:10:46.494Z,2.87
2023-01-10T20:13:13.829Z,2.57
2023-01-10T20:15:41.239Z,2.50
2023-01-10T20:18:08.637Z,2.67
2023-01-10T20:20:36.361Z,2.60
2023-01-10T20:23:04.903Z,2.07
2023-01-10T20:25:32.208Z,2.77
2023-01-10T20:28:00.903Z,2.10
2023-01-10T20:30:28.278Z,2.53
2023-01-10T20:32:55.672Z,2.60
2023-01-10T20:35:23.131Z,2.30
2023-01-10T20:37:50.509Z,2.60
2023-01-10T20:40:18.045Z,2.30
2023-01-10T20:42:45.432Z,2.20
2023-01-10T20:45:14.261Z,2.60
2023-01-10T20:47:41.608Z,2.10
2023-01-10T20:50:09.623Z,2.20
2023-01-10T20:52:36.979Z,1.80
2023-01-10T20:55:04.546Z,2.87
2023-01-10T20:57:31.897Z,2.53
2023-01-10T20:59:59.259Z,2.97
2023-01-10T21:02:28.220Z,2.63
2023-01-10T21:04:55.568Z,2.43
2023-01-10T21:07:22.917Z,2.43
2023-01-10T21:09:50.392Z,2.03
2023-01-10T21:12:23.175Z,2.07
2023-01-10T21:14:52.364Z,2.40
2023-01-10T21:17:19.693Z,1.97
2023-01-10T21:19:48.349Z,2.27
2023-01-10T21:22:15.912Z,2.17
2023-01-10T21:24:43.990Z,1.97
2023-01-10T21:27:11.449Z,1.83
2023-01-10T21:29:38.857Z,2.43
2023-01-10T21:32:09.133Z,2.10
2023-01-10T21:34:36.626Z,2.20
2023-01-10T21:37:05.276Z,2.47
2023-01-10T21:39:32.629Z,2.37
2023-01-10T21:42:17.272Z,2.40
2023-01-10T21:44:44.607Z,1.90
2023-01-10T21:47:11.926Z,1.90
2023-01-10T21:49:39.292Z,1.70
2023-01-10T21:52:08.073Z,1.80
2023-01-10T21:54:35.432Z,2.03
2023-01-10T21:57:03.677Z,2.20
2023-01-10T21:59:31.157Z,1.60
2023-01-10T22:01:58.545Z,2.13
2023-01-10T22:04:25.928Z,2.30
2023-01-10T22:06:53.306Z,1.73
2023-01-10T22:09:22.132Z,1.97
2023-01-10T22:11:49.616Z,1.90
2023-01-10T22:14:16.952Z,1.90
2023-01-10T22:16:44.322Z,2.00
2023-01-10T22:19:12.781Z,1.70
2023-01-10T22:21:40.444Z,1.57
2023-01-10T22:24:08.017Z,1.93
2023-01-10T22:26:36.743Z,1.60
2023-01-10T22:29:04.197Z,1.80
2023-01-10T22:31:31.600Z,1.57
2023-01-10T22:33:58.970Z,1.70
2023-01-10T22:36:26.318Z,1.70
2023-01-10T22:38:53.630Z,1.63
2023-01-10T22:41:21.669Z,1.70
2023-01-10T22:43:53.053Z,1.60
2023-01-10T22:46:20.848Z,1.80
2023-01-10T22:48:48.467Z,1.30
2023-01-10T22:51:16.443Z,1.13
2023-01-10T22:53:43.830Z,1.30
2023-01-10T22:56:12.147Z,1.50
2023-01-10T22:58:39.471Z,1.57
2023-01-10T23:01:08.481Z,1.50
2023-01-10T23:03:35.959Z,1.50
2023-01-10T23:06:03.338Z,1.20
2023-01-10T23:08:30.677Z,1.63
2023-01-10T23:10:58.203Z,1.10
2023-01-10T23:13:25.900Z,1.10
2023-01-10T23:15:56.972Z,1.40
2023-01-10T23:18:25.674Z,1.10
2023-01-10T23:20:53.075Z,1.00
2023-01-10T23:23:20.457Z,1.10
2023-01-10T23:26:01.187Z,1.77
2023-01-10T23:28:28.632Z,1.13
2023-01-10T23:30:56.031Z,1.33
2023-01-10T23:33:23.380Z,1.03
2023-01-10T23:35:52.066Z,1.30
2023-01-10T23:38:19.488Z,1.30
2023-01-10T23:40:46.868Z,1.10
2023-01-10T23:43:14.201Z,1.10
2023-01-10T23:45:43.112Z,1.23
2023-01-10T23:48:10.595Z,1.27
2023-01-10T23:50:38.243Z,0.97
2023-01-10T23:53:07.219Z,1.20
2023-01-10T23:55:34.591Z,1.10
2023-01-10T23:58:02.006Z,1.27
